sensor_id;sensor_type;location;lat;lon;timestamp;pressure;altitude;pressure_sealevel;temperature;humidity
59829;BME280;45708;51.848;107.620;2023-05-27T00:02:00;94965.09;;;17.38;36.74
59829;BME280;45708;51.848;107.620;2023-05-27T00:07:01;94958.91;;;17.22;36.45
59829;BME280;45708;51.848;107.620;2023-05-27T00:12:02;94961.97;;;17.91;35.47
59829;BME280;45708;51.848;107.620;2023-05-27T00:17:03;94947.47;;;17.42;35.46
59829;BME280;45708;51.848;107.620;2023-05-27T00:22:04;94953.44;;;16.81;36.26
59829;BME280;45708;51.848;107.620;2023-05-27T00:27:06;94951.91;;;16.43;36.75
59829;BME280;45708;51.848;107.620;2023-05-27T00:32:06;94956.00;;;15.81;37.97
59829;BME280;45708;51.848;107.620;2023-05-27T00:37:07;94952.81;;;17.31;35.81
59829;BME280;45708;51.848;107.620;2023-05-27T00:42:09;94952.06;;;17.82;35.00
59829;BME280;45708;51.848;107.620;2023-05-27T00:47:11;94952.81;;;18.64;33.91
59829;BME280;45708;51.848;107.620;2023-05-27T00:52:11;94948.34;;;19.58;32.27
59829;BME280;45708;51.848;107.620;2023-05-27T00:57:12;94944.16;;;20.15;31.33
59829;BME280;45708;51.848;107.620;2023-05-27T01:02:14;94941.16;;;20.50;30.50
59829;BME280;45708;51.848;107.620;2023-05-27T01:07:29;94944.72;;;20.12;31.28
59829;BME280;45708;51.848;107.620;2023-05-27T01:12:59;94940.19;;;20.36;30.88
59829;BME280;45708;51.848;107.620;2023-05-27T01:18:02;94936.69;;;21.12;29.77
59829;BME280;45708;51.848;107.620;2023-05-27T01:23:03;94938.84;;;21.53;29.35
59829;BME280;45708;51.848;107.620;2023-05-27T01:28:04;94932.81;;;22.12;28.83
59829;BME280;45708;51.848;107.620;2023-05-27T01:33:11;94925.81;;;21.60;29.44
59829;BME280;45708;51.848;107.620;2023-05-27T01:38:16;94924.81;;;21.56;29.12
59829;BME280;45708;51.848;107.620;2023-05-27T01:43:18;94921.78;;;21.01;29.44
59829;BME280;45708;51.848;107.620;2023-05-27T01:48:19;94934.88;;;20.60;30.33
59829;BME280;45708;51.848;107.620;2023-05-27T01:53:20;94929.09;;;20.95;29.48
59829;BME280;45708;51.848;107.620;2023-05-27T01:58:21;94928.47;;;21.28;28.91
59829;BME280;45708;51.848;107.620;2023-05-27T02:03:21;94922.59;;;21.20;29.43
59829;BME280;45708;51.848;107.620;2023-05-27T02:08:22;94930.50;;;21.12;28.93
59829;BME280;45708;51.848;107.620;2023-05-27T02:13:23;94929.09;;;20.19;29.77
59829;BME280;45708;51.848;107.620;2023-05-27T02:18:24;94932.28;;;19.53;30.36
59829;BME280;45708;51.848;107.620;2023-05-27T02:23:24;94937.97;;;19.46;29.93
59829;BME280;45708;51.848;107.620;2023-05-27T02:28:25;94941.84;;;19.69;29.57
59829;BME280;45708;51.848;107.620;2023-05-27T02:33:26;94943.03;;;20.21;29.57
59829;BME280;45708;51.848;107.620;2023-05-27T02:38:27;94934.25;;;20.39;29.09
59829;BME280;45708;51.848;107.620;2023-05-27T02:43:28;94935.25;;;19.07;28.85
59829;BME280;45708;51.848;107.620;2023-05-27T02:48:29;94932.88;;;17.85;30.53
59829;BME280;45708;51.848;107.620;2023-05-27T02:53:29;94920.56;;;17.69;30.72
59829;BME280;45708;51.848;107.620;2023-05-27T02:58:30;94906.00;;;16.83;31.73
59829;BME280;45708;51.848;107.620;2023-05-27T03:03:31;94916.28;;;16.17;31.99
59829;BME280;45708;51.848;107.620;2023-05-27T03:08:32;94903.63;;;15.92;32.18
59829;BME280;45708;51.848;107.620;2023-05-27T03:13:32;94923.75;;;16.15;31.73
59829;BME280;45708;51.848;107.620;2023-05-27T03:18:33;94925.50;;;15.99;32.04
59829;BME280;45708;51.848;107.620;2023-05-27T03:23:34;94926.16;;;15.79;31.94
59829;BME280;45708;51.848;107.620;2023-05-27T03:28:35;94929.66;;;15.53;32.40
59829;BME280;45708;51.848;107.620;2023-05-27T03:33:37;94922.59;;;16.01;32.24
59829;BME280;45708;51.848;107.620;2023-05-27T03:38:38;94920.34;;;16.77;31.01
59829;BME280;45708;51.848;107.620;2023-05-27T03:43:38;94927.06;;;16.37;31.43
59829;BME280;45708;51.848;107.620;2023-05-27T03:48:39;94931.16;;;16.50;30.75
59829;BME280;45708;51.848;107.620;2023-05-27T03:53:40;94923.44;;;16.06;30.89
59829;BME280;45708;51.848;107.620;2023-05-27T03:58:41;94938.78;;;16.31;30.86
59829;BME280;45708;51.848;107.620;2023-05-27T04:03:42;94939.94;;;16.46;30.18
59829;BME280;45708;51.848;107.620;2023-05-27T04:08:43;94929.19;;;16.35;29.97
59829;BME280;45708;51.848;107.620;2023-05-27T04:13:44;94931.94;;;16.46;30.80
59829;BME280;45708;51.848;107.620;2023-05-27T04:18:45;94921.59;;;16.12;30.51
59829;BME280;45708;51.848;107.620;2023-05-27T04:23:46;94920.13;;;16.36;29.78
59829;BME280;45708;51.848;107.620;2023-05-27T04:28:48;94908.31;;;15.48;29.27
59829;BME280;45708;51.848;107.620;2023-05-27T04:33:48;94918.22;;;15.85;30.40
59829;BME280;45708;51.848;107.620;2023-05-27T04:38:49;94915.31;;;16.28;30.47
59829;BME280;45708;51.848;107.620;2023-05-27T04:43:50;94911.59;;;16.34;29.26
59829;BME280;45708;51.848;107.620;2023-05-27T04:48:52;94916.81;;;16.14;29.06
59829;BME280;45708;51.848;107.620;2023-05-27T04:53:53;94905.56;;;16.02;29.75
59829;BME280;45708;51.848;107.620;2023-05-27T04:58:53;94905.53;;;16.44;29.28
59829;BME280;45708;51.848;107.620;2023-05-27T05:03:54;94899.81;;;16.72;29.12
59829;BME280;45708;51.848;107.620;2023-05-27T05:08:55;94889.94;;;16.78;29.16
59829;BME280;45708;51.848;107.620;2023-05-27T05:13:56;94879.31;;;16.88;28.73
59829;BME280;45708;51.848;107.620;2023-05-27T05:18:57;94864.41;;;17.13;28.85
59829;BME280;45708;51.848;107.620;2023-05-27T05:23:57;94866.31;;;16.39;28.52
59829;BME280;45708;51.848;107.620;2023-05-27T05:28:58;94864.44;;;15.88;29.41
59829;BME280;45708;51.848;107.620;2023-05-27T05:33:59;94861.09;;;15.65;29.55
59829;BME280;45708;51.848;107.620;2023-05-27T05:39:00;94858.59;;;15.53;30.18
59829;BME280;45708;51.848;107.620;2023-05-27T05:44:01;94853.50;;;15.52;30.04
59829;BME280;45708;51.848;107.620;2023-05-27T05:49:01;94850.72;;;15.37;30.21
59829;BME280;45708;51.848;107.620;2023-05-27T05:54:02;94840.63;;;15.39;30.93
59829;BME280;45708;51.848;107.620;2023-05-27T05:59:03;94840.91;;;15.74;29.59
59829;BME280;45708;51.848;107.620;2023-05-27T06:04:04;94832.94;;;15.74;30.33
59829;BME280;45708;51.848;107.620;2023-05-27T06:09:05;94839.56;;;16.19;29.11
59829;BME280;45708;51.848;107.620;2023-05-27T06:14:07;94835.53;;;16.11;28.10
59829;BME280;45708;51.848;107.620;2023-05-27T06:19:08;94828.63;;;15.68;28.74
59829;BME280;45708;51.848;107.620;2023-05-27T06:24:08;94823.81;;;15.65;28.36
59829;BME280;45708;51.848;107.620;2023-05-27T06:29:09;94825.03;;;15.90;28.84
59829;BME280;45708;51.848;107.620;2023-05-27T06:34:10;94811.91;;;15.41;28.68
59829;BME280;45708;51.848;107.620;2023-05-27T06:39:11;94827.28;;;15.34;29.02
59829;BME280;45708;51.848;107.620;2023-05-27T06:44:11;94827.88;;;15.78;28.67
59829;BME280;45708;51.848;107.620;2023-05-27T06:49:12;94793.34;;;15.93;28.93
59829;BME280;45708;51.848;107.620;2023-05-27T06:54:13;94819.94;;;15.83;28.64
59829;BME280;45708;51.848;107.620;2023-05-27T06:59:14;94806.66;;;15.51;28.76
59829;BME280;45708;51.848;107.620;2023-05-27T07:04:15;94766.38;;;15.79;29.17
59829;BME280;45708;51.848;107.620;2023-05-27T07:09:16;94785.25;;;15.73;28.35
59829;BME280;45708;51.848;107.620;2023-05-27T07:14:17;94784.94;;;16.22;28.77
59829;BME280;45708;51.848;107.620;2023-05-27T07:19:18;94765.34;;;15.86;28.85
59829;BME280;45708;51.848;107.620;2023-05-27T07:24:19;94766.50;;;16.10;29.23
59829;BME280;45708;51.848;107.620;2023-05-27T07:29:19;94776.72;;;16.33;28.86
59829;BME280;45708;51.848;107.620;2023-05-27T07:34:20;94767.59;;;16.14;28.48
59829;BME280;45708;51.848;107.620;2023-05-27T07:39:21;94752.06;;;15.96;28.53
59829;BME280;45708;51.848;107.620;2023-05-27T07:44:22;94775.13;;;16.32;28.67
59829;BME280;45708;51.848;107.620;2023-05-27T07:49:24;94769.31;;;16.56;28.19
59829;BME280;45708;51.848;107.620;2023-05-27T07:54:25;94753.63;;;16.80;27.61
59829;BME280;45708;51.848;107.620;2023-05-27T07:59:26;94764.06;;;17.12;27.97
59829;BME280;45708;51.848;107.620;2023-05-27T08:04:26;94762.44;;;17.21;27.21
59829;BME280;45708;51.848;107.620;2023-05-27T08:09:27;94761.41;;;17.12;27.05
59829;BME280;45708;51.848;107.620;2023-05-27T08:14:28;94763.53;;;16.89;27.36
59829;BME280;45708;51.848;107.620;2023-05-27T08:19:29;94766.72;;;16.76;27.43
59829;BME280;45708;51.848;107.620;2023-05-27T08:24:30;94774.09;;;16.49;27.65
59829;BME280;45708;51.848;107.620;2023-05-27T08:29:32;94772.97;;;16.24;28.08
59829;BME280;45708;51.848;107.620;2023-05-27T08:34:33;94762.25;;;16.14;28.13
59829;BME280;45708;51.848;107.620;2023-05-27T08:39:33;94768.66;;;16.08;28.67
59829;BME280;45708;51.848;107.620;2023-05-27T08:44:34;94748.31;;;15.92;28.58
59829;BME280;45708;51.848;107.620;2023-05-27T08:49:35;94749.38;;;15.86;28.63
59829;BME280;45708;51.848;107.620;2023-05-27T08:54:36;94760.91;;;16.06;29.23
59829;BME280;45708;51.848;107.620;2023-05-27T08:59:39;94767.13;;;16.27;28.75
59829;BME280;45708;51.848;107.620;2023-05-27T09:04:40;94767.34;;;16.21;29.12
59829;BME280;45708;51.848;107.620;2023-05-27T09:09:42;94762.78;;;16.11;29.39
59829;BME280;45708;51.848;107.620;2023-05-27T09:14:42;94760.59;;;15.93;29.33
59829;BME280;45708;51.848;107.620;2023-05-27T09:19:47;94753.13;;;15.90;29.85
59829;BME280;45708;51.848;107.620;2023-05-27T09:24:48;94772.00;;;15.83;29.76
59829;BME280;45708;51.848;107.620;2023-05-27T09:29:48;94774.28;;;15.64;30.06
59829;BME280;45708;51.848;107.620;2023-05-27T09:34:49;94789.09;;;15.55;30.35
59829;BME280;45708;51.848;107.620;2023-05-27T09:39:51;94784.84;;;15.54;30.26
59829;BME280;45708;51.848;107.620;2023-05-27T09:44:54;94774.16;;;15.44;31.02
59829;BME280;45708;51.848;107.620;2023-05-27T09:49:55;94789.06;;;15.45;30.55
59829;BME280;45708;51.848;107.620;2023-05-27T09:54:57;94790.44;;;15.52;30.77
59829;BME280;45708;51.848;107.620;2023-05-27T09:59:59;94783.84;;;15.60;30.83
59829;BME280;45708;51.848;107.620;2023-05-27T10:05:02;94795.44;;;15.44;31.35
59829;BME280;45708;51.848;107.620;2023-05-27T10:10:09;94795.28;;;15.24;31.75
59829;BME280;45708;51.848;107.620;2023-05-27T10:15:30;94807.56;;;14.98;32.27
59829;BME280;45708;51.848;107.620;2023-05-27T10:20:37;94808.09;;;15.00;32.47
59829;BME280;45708;51.848;107.620;2023-05-27T10:25:46;94814.13;;;14.85;33.00
59829;BME280;45708;51.848;107.620;2023-05-27T10:30:47;94799.56;;;14.66;33.21
59829;BME280;45708;51.848;107.620;2023-05-27T10:35:49;94821.69;;;14.44;33.62
59829;BME280;45708;51.848;107.620;2023-05-27T10:40:59;94822.00;;;14.31;33.70
59829;BME280;45708;51.848;107.620;2023-05-27T10:46:09;94811.69;;;14.13;33.81
59829;BME280;45708;51.848;107.620;2023-05-27T10:51:12;94814.59;;;14.11;34.18
59829;BME280;45708;51.848;107.620;2023-05-27T10:56:12;94823.19;;;13.96;34.52
59829;BME280;45708;51.848;107.620;2023-05-27T11:01:14;94847.06;;;13.96;34.45
59829;BME280;45708;51.848;107.620;2023-05-27T11:06:17;94830.94;;;13.81;34.67
59829;BME280;45708;51.848;107.620;2023-05-27T11:11:17;94792.19;;;13.42;35.19
59829;BME280;45708;51.848;107.620;2023-05-27T11:16:18;94838.72;;;13.66;35.89
59829;BME280;45708;51.848;107.620;2023-05-27T11:21:19;94834.53;;;13.53;35.98
59829;BME280;45708;51.848;107.620;2023-05-27T11:26:22;94833.09;;;13.29;37.26
59829;BME280;45708;51.848;107.620;2023-05-27T11:31:29;94840.28;;;13.00;37.55
59829;BME280;45708;51.848;107.620;2023-05-27T11:36:30;94846.06;;;12.97;37.73
59829;BME280;45708;51.848;107.620;2023-05-27T11:41:33;94849.50;;;12.80;38.02
59829;BME280;45708;51.848;107.620;2023-05-27T11:46:38;94842.00;;;12.77;38.38
59829;BME280;45708;51.848;107.620;2023-05-27T11:51:57;94833.50;;;12.75;37.83
59829;BME280;45708;51.848;107.620;2023-05-27T11:56:58;94840.31;;;12.71;37.66
59829;BME280;45708;51.848;107.620;2023-05-27T12:01:59;94838.09;;;12.52;37.88
59829;BME280;45708;51.848;107.620;2023-05-27T12:07:01;94841.59;;;12.40;38.23
59829;BME280;45708;51.848;107.620;2023-05-27T12:12:01;94836.91;;;12.31;38.74
59829;BME280;45708;51.848;107.620;2023-05-27T12:17:02;94837.88;;;12.25;38.23
59829;BME280;45708;51.848;107.620;2023-05-27T12:22:04;94845.03;;;12.12;38.97
59829;BME280;45708;51.848;107.620;2023-05-27T12:27:05;94847.47;;;12.02;38.47
59829;BME280;45708;51.848;107.620;2023-05-27T12:32:06;94842.53;;;11.94;39.02
59829;BME280;45708;51.848;107.620;2023-05-27T12:37:07;94846.09;;;11.76;38.73
59829;BME280;45708;51.848;107.620;2023-05-27T12:42:07;94846.22;;;11.70;38.87
59829;BME280;45708;51.848;107.620;2023-05-27T12:47:08;94849.66;;;11.58;39.38
59829;BME280;45708;51.848;107.620;2023-05-27T12:52:09;94864.63;;;11.41;39.90
59829;BME280;45708;51.848;107.620;2023-05-27T12:57:11;94867.59;;;11.33;40.15
59829;BME280;45708;51.848;107.620;2023-05-27T13:02:12;94875.41;;;11.28;39.66
59829;BME280;45708;51.848;107.620;2023-05-27T13:07:13;94868.16;;;11.12;39.73
59829;BME280;45708;51.848;107.620;2023-05-27T13:12:14;94893.09;;;11.16;39.58
59829;BME280;45708;51.848;107.620;2023-05-27T13:17:14;94895.16;;;11.02;39.90
59829;BME280;45708;51.848;107.620;2023-05-27T13:22:15;94902.28;;;11.02;40.20
59829;BME280;45708;51.848;107.620;2023-05-27T13:27:16;94918.47;;;11.05;40.49
59829;BME280;45708;51.848;107.620;2023-05-27T13:32:17;94931.47;;;11.07;40.37
59829;BME280;45708;51.848;107.620;2023-05-27T13:37:19;94944.56;;;11.02;40.74
59829;BME280;45708;51.848;107.620;2023-05-27T13:42:20;94950.03;;;11.00;40.48
59829;BME280;45708;51.848;107.620;2023-05-27T13:47:21;94948.09;;;10.95;40.82
59829;BME280;45708;51.848;107.620;2023-05-27T13:52:22;94947.03;;;10.96;40.82
59829;BME280;45708;51.848;107.620;2023-05-27T13:57:22;94960.84;;;10.98;40.94
59829;BME280;45708;51.848;107.620;2023-05-27T14:02:23;94969.44;;;10.94;41.11
59829;BME280;45708;51.848;107.620;2023-05-27T14:07:24;94970.00;;;10.84;42.14
59829;BME280;45708;51.848;107.620;2023-05-27T14:12:25;94981.44;;;10.78;42.17
59829;BME280;45708;51.848;107.620;2023-05-27T14:17:26;94997.72;;;10.75;42.31
59829;BME280;45708;51.848;107.620;2023-05-27T14:22:28;95009.56;;;10.73;41.42
59829;BME280;45708;51.848;107.620;2023-05-27T14:27:29;95012.41;;;10.71;41.78
59829;BME280;45708;51.848;107.620;2023-05-27T14:32:30;95023.13;;;10.76;41.67
59829;BME280;45708;51.848;107.620;2023-05-27T14:37:31;95023.44;;;10.68;42.33
59829;BME280;45708;51.848;107.620;2023-05-27T14:42:31;95025.53;;;10.59;42.24
59829;BME280;45708;51.848;107.620;2023-05-27T14:47:32;95022.78;;;10.54;41.62
59829;BME280;45708;51.848;107.620;2023-05-27T14:52:33;95032.53;;;10.54;42.33
59829;BME280;45708;51.848;107.620;2023-05-27T14:57:34;95035.75;;;10.56;42.55
59829;BME280;45708;51.848;107.620;2023-05-27T15:02:35;95035.84;;;10.49;42.69
59829;BME280;45708;51.848;107.620;2023-05-27T15:07:37;95043.97;;;10.48;43.18
59829;BME280;45708;51.848;107.620;2023-05-27T15:12:45;95032.06;;;10.39;43.35
59829;BME280;45708;51.848;107.620;2023-05-27T15:17:46;95045.28;;;10.39;43.02
59829;BME280;45708;51.848;107.620;2023-05-27T15:22:47;95038.88;;;10.28;42.49
59829;BME280;45708;51.848;107.620;2023-05-27T15:27:48;95040.13;;;10.25;43.59
59829;BME280;45708;51.848;107.620;2023-05-27T15:32:49;95023.94;;;10.15;43.29
59829;BME280;45708;51.848;107.620;2023-05-27T15:37:50;95021.88;;;10.17;43.65
59829;BME280;45708;51.848;107.620;2023-05-27T15:42:50;95020.13;;;10.11;43.17
59829;BME280;45708;51.848;107.620;2023-05-27T15:47:51;94999.56;;;9.95;43.28
59829;BME280;45708;51.848;107.620;2023-05-27T15:52:52;94994.00;;;9.85;44.30
59829;BME280;45708;51.848;107.620;2023-05-27T15:57:53;94986.19;;;9.71;44.35
59829;BME280;45708;51.848;107.620;2023-05-27T16:02:55;94991.16;;;9.61;44.86
59829;BME280;45708;51.848;107.620;2023-05-27T16:07:57;94988.06;;;9.64;43.87
59829;BME280;45708;51.848;107.620;2023-05-27T16:12:58;94998.34;;;9.72;43.79
59829;BME280;45708;51.848;107.620;2023-05-27T16:18:02;95004.63;;;9.71;42.99
59829;BME280;45708;51.848;107.620;2023-05-27T16:23:03;95011.75;;;9.71;42.76
59829;BME280;45708;51.848;107.620;2023-05-27T16:28:04;95028.06;;;9.86;42.88
59829;BME280;45708;51.848;107.620;2023-05-27T16:33:05;95026.59;;;9.90;43.11
59829;BME280;45708;51.848;107.620;2023-05-27T16:38:06;95035.13;;;9.92;43.17
59829;BME280;45708;51.848;107.620;2023-05-27T16:43:06;95022.22;;;9.77;43.80
59829;BME280;45708;51.848;107.620;2023-05-27T16:48:07;95040.38;;;9.67;43.34
59829;BME280;45708;51.848;107.620;2023-05-27T16:53:08;95050.50;;;9.70;43.54
59829;BME280;45708;51.848;107.620;2023-05-27T16:58:09;95066.50;;;9.75;43.40
59829;BME280;45708;51.848;107.620;2023-05-27T17:03:10;95068.91;;;9.77;42.89
59829;BME280;45708;51.848;107.620;2023-05-27T17:08:11;95051.19;;;9.59;43.36
59829;BME280;45708;51.848;107.620;2023-05-27T17:13:11;95090.38;;;9.81;43.66
59829;BME280;45708;51.848;107.620;2023-05-27T17:18:12;95064.72;;;9.69;43.62
59829;BME280;45708;51.848;107.620;2023-05-27T17:23:13;95067.34;;;9.69;44.04
59829;BME280;45708;51.848;107.620;2023-05-27T17:28:14;95055.47;;;9.54;44.50
59829;BME280;45708;51.848;107.620;2023-05-27T17:33:15;95050.13;;;9.35;45.91
59829;BME280;45708;51.848;107.620;2023-05-27T17:38:15;95044.28;;;9.58;44.57
59829;BME280;45708;51.848;107.620;2023-05-27T17:43:17;95046.34;;;9.56;43.77
59829;BME280;45708;51.848;107.620;2023-05-27T17:48:18;95045.75;;;9.54;43.90
59829;BME280;45708;51.848;107.620;2023-05-27T17:53:19;95058.47;;;9.64;44.91
59829;BME280;45708;51.848;107.620;2023-05-27T17:58:20;95069.91;;;9.51;46.30
59829;BME280;45708;51.848;107.620;2023-05-27T18:03:21;95066.41;;;9.26;48.47
59829;BME280;45708;51.848;107.620;2023-05-27T18:08:22;95068.47;;;8.59;51.29
59829;BME280;45708;51.848;107.620;2023-05-27T18:13:23;95055.78;;;8.10;54.16
59829;BME280;45708;51.848;107.620;2023-05-27T18:18:24;95043.03;;;7.60;55.53
59829;BME280;45708;51.848;107.620;2023-05-27T18:23:24;95050.94;;;7.54;56.30
59829;BME280;45708;51.848;107.620;2023-05-27T18:28:25;95058.22;;;7.72;56.47
59829;BME280;45708;51.848;107.620;2023-05-27T18:33:26;95052.16;;;7.84;55.02
59829;BME280;45708;51.848;107.620;2023-05-27T18:38:28;95050.13;;;8.00;55.21
59829;BME280;45708;51.848;107.620;2023-05-27T18:43:29;95057.00;;;8.14;54.98
59829;BME280;45708;51.848;107.620;2023-05-27T18:48:30;95041.38;;;8.32;53.55
59829;BME280;45708;51.848;107.620;2023-05-27T18:53:31;95036.72;;;8.47;53.53
59829;BME280;45708;51.848;107.620;2023-05-27T18:58:31;95038.31;;;8.62;53.28
59829;BME280;45708;51.848;107.620;2023-05-27T19:03:32;95039.88;;;8.76;52.48
59829;BME280;45708;51.848;107.620;2023-05-27T19:08:33;95033.34;;;8.85;52.66
59829;BME280;45708;51.848;107.620;2023-05-27T19:13:34;95028.44;;;8.95;51.92
59829;BME280;45708;51.848;107.620;2023-05-27T19:18:35;95016.13;;;8.89;51.83
59829;BME280;45708;51.848;107.620;2023-05-27T19:23:35;95010.25;;;8.87;52.68
59829;BME280;45708;51.848;107.620;2023-05-27T19:28:36;95019.81;;;8.75;53.26
59829;BME280;45708;51.848;107.620;2023-05-27T19:33:37;95008.69;;;8.73;53.36
59829;BME280;45708;51.848;107.620;2023-05-27T19:38:38;94990.78;;;8.88;52.09
59829;BME280;45708;51.848;107.620;2023-05-27T19:43:39;94997.63;;;9.02;51.61
59829;BME280;45708;51.848;107.620;2023-05-27T19:48:39;94994.75;;;9.04;51.47
59829;BME280;45708;51.848;107.620;2023-05-27T19:53:41;94992.09;;;9.10;51.44
59829;BME280;45708;51.848;107.620;2023-05-27T19:58:42;94993.69;;;9.11;52.08
59829;BME280;45708;51.848;107.620;2023-05-27T20:03:43;94989.50;;;8.97;53.13
59829;BME280;45708;51.848;107.620;2023-05-27T20:08:43;94968.53;;;8.84;53.19
59829;BME280;45708;51.848;107.620;2023-05-27T20:13:44;94979.66;;;8.79;54.11
59829;BME280;45708;51.848;107.620;2023-05-27T20:18:45;94986.03;;;8.59;54.67
59829;BME280;45708;51.848;107.620;2023-05-27T20:23:46;94985.91;;;8.40;55.15
59829;BME280;45708;51.848;107.620;2023-05-27T20:28:47;94982.06;;;8.30;55.81
59829;BME280;45708;51.848;107.620;2023-05-27T20:33:48;94985.13;;;8.20;56.21
59829;BME280;45708;51.848;107.620;2023-05-27T20:38:49;94990.25;;;8.02;56.66
59829;BME280;45708;51.848;107.620;2023-05-27T20:43:50;95004.41;;;7.87;57.15
59829;BME280;45708;51.848;107.620;2023-05-27T20:48:52;95014.53;;;7.84;57.51
59829;BME280;45708;51.848;107.620;2023-05-27T20:53:53;95007.66;;;7.76;58.14
59829;BME280;45708;51.848;107.620;2023-05-27T20:58:55;95007.06;;;7.48;59.46
59829;BME280;45708;51.848;107.620;2023-05-27T21:03:59;95006.22;;;7.41;59.53
59829;BME280;45708;51.848;107.620;2023-05-27T21:08:59;95023.00;;;7.33;60.13
59829;BME280;45708;51.848;107.620;2023-05-27T21:14:01;94969.59;;;6.93;61.38
59829;BME280;45708;51.848;107.620;2023-05-27T21:19:02;95014.13;;;7.21;60.31
59829;BME280;45708;51.848;107.620;2023-05-27T21:24:03;95018.97;;;7.24;60.26
59829;BME280;45708;51.848;107.620;2023-05-27T21:29:04;95022.59;;;7.29;59.63
59829;BME280;45708;51.848;107.620;2023-05-27T21:34:05;95028.28;;;7.46;59.37
59829;BME280;45708;51.848;107.620;2023-05-27T21:39:06;94978.50;;;7.18;59.69
59829;BME280;45708;51.848;107.620;2023-05-27T21:44:06;95044.06;;;7.73;59.15
59829;BME280;45708;51.848;107.620;2023-05-27T21:49:07;95051.75;;;7.87;58.41
59829;BME280;45708;51.848;107.620;2023-05-27T21:54:08;95037.41;;;7.90;57.81
59829;BME280;45708;51.848;107.620;2023-05-27T21:59:09;95044.25;;;7.98;58.16
59829;BME280;45708;51.848;107.620;2023-05-27T22:04:09;95050.91;;;8.20;57.95
59829;BME280;45708;51.848;107.620;2023-05-27T22:09:10;95042.81;;;8.28;57.46
59829;BME280;45708;51.848;107.620;2023-05-27T22:14:11;95041.59;;;8.37;57.37
59829;BME280;45708;51.848;107.620;2023-05-27T22:19:12;95046.00;;;8.57;57.01
59829;BME280;45708;51.848;107.620;2023-05-27T22:24:13;95043.56;;;8.62;57.18
59829;BME280;45708;51.848;107.620;2023-05-27T22:29:14;95064.63;;;8.68;56.96
59829;BME280;45708;51.848;107.620;2023-05-27T22:34:15;95069.25;;;8.73;56.54
59829;BME280;45708;51.848;107.620;2023-05-27T22:39:16;95058.13;;;8.71;56.59
59829;BME280;45708;51.848;107.620;2023-05-27T22:44:17;95073.41;;;9.00;55.92
59829;BME280;45708;51.848;107.620;2023-05-27T22:49:18;95074.06;;;9.34;54.77
59829;BME280;45708;51.848;107.620;2023-05-27T22:54:19;95055.91;;;9.51;54.66
59829;BME280;45708;51.848;107.620;2023-05-27T22:59:20;95073.94;;;10.10;53.67
59829;BME280;45708;51.848;107.620;2023-05-27T23:04:20;95079.59;;;11.30;50.99
59829;BME280;45708;51.848;107.620;2023-05-27T23:09:21;95079.97;;;11.94;49.14
59829;BME280;45708;51.848;107.620;2023-05-27T23:14:22;95064.81;;;11.41;49.66
59829;BME280;45708;51.848;107.620;2023-05-27T23:19:23;95081.75;;;11.51;49.96
59829;BME280;45708;51.848;107.620;2023-05-27T23:24:24;95080.19;;;13.78;46.88
59829;BME280;45708;51.848;107.620;2023-05-27T23:29:24;95084.59;;;17.10;39.66
59829;BME280;45708;51.848;107.620;2023-05-27T23:34:25;95078.53;;;17.25;38.97
59829;BME280;45708;51.848;107.620;2023-05-27T23:39:26;95089.19;;;16.40;39.95
59829;BME280;45708;51.848;107.620;2023-05-27T23:44:27;95087.09;;;18.81;37.52
59829;BME280;45708;51.848;107.620;2023-05-27T23:49:28;95088.94;;;20.59;33.83
59829;BME280;45708;51.848;107.620;2023-05-27T23:54:28;95091.66;;;18.45;36.46
59829;BME280;45708;51.848;107.620;2023-05-27T23:59:29;95096.13;;;17.21;38.10
